sensor_id;sensor_type;location;lat;lon;timestamp;pressure;altitude;pressure_sealevel;temperature;humidity
61408;BME280;47274;43.054;25.146;2022-12-07T09:44:40;95411.50;;;10.71;92.95
61408;BME280;47274;43.054;25.146;2022-12-07T09:47:07;95350.34;;;9.68;91.96
61408;BME280;47274;43.054;25.146;2022-12-07T09:49:34;95381.09;;;9.41;93.86
61408;BME280;47274;43.054;25.146;2022-12-07T09:54:46;95392.19;;;9.59;95.41
61408;BME280;47274;43.054;25.146;2022-12-07T09:57:15;95389.09;;;9.83;98.88
61408;BME280;47274;43.054;25.146;2022-12-07T09:59:41;95382.63;;;9.79;97.86
61408;BME280;47274;43.054;25.146;2022-12-07T10:02:24;95385.03;;;9.63;93.76
61408;BME280;47274;43.054;25.146;2022-12-07T10:04:50;95352.94;;;9.41;98.28
61408;BME280;47274;43.054;25.146;2022-12-07T10:07:16;95381.50;;;9.64;100.00
61408;BME280;47274;43.054;25.146;2022-12-07T10:09:42;95381.94;;;9.59;99.13
61408;BME280;47274;43.054;25.146;2022-12-07T10:12:10;95354.53;;;9.42;99.38
61408;BME280;47274;43.054;25.146;2022-12-07T10:14:40;95347.31;;;9.55;100.00
61408;BME280;47274;43.054;25.146;2022-12-07T10:17:39;95322.00;;;9.52;97.80
61408;BME280;47274;43.054;25.146;2022-12-07T10:20:23;95373.13;;;9.89;98.88
61408;BME280;47274;43.054;25.146;2022-12-07T10:22:59;95377.56;;;9.69;95.65
61408;BME280;47274;43.054;25.146;2022-12-07T10:25:31;95339.72;;;9.63;97.68
61408;BME280;47274;43.054;25.146;2022-12-07T10:28:16;95361.97;;;9.81;92.88
61408;BME280;47274;43.054;25.146;2022-12-07T10:31:02;95362.19;;;9.69;92.59
61408;BME280;47274;43.054;25.146;2022-12-07T10:33:52;95356.72;;;9.64;95.54
61408;BME280;47274;43.054;25.146;2022-12-07T10:36:37;95358.91;;;10.13;99.27
61408;BME280;47274;43.054;25.146;2022-12-07T10:39:15;95360.72;;;12.34;95.49
61408;BME280;47274;43.054;25.146;2022-12-07T10:41:58;95358.09;;;14.01;84.29
61408;BME280;47274;43.054;25.146;2022-12-07T10:44:32;95367.97;;;14.43;78.69
61408;BME280;47274;43.054;25.146;2022-12-07T11:00:43;95332.94;;;17.99;65.25
61408;BME280;47274;43.054;25.146;2022-12-07T11:03:19;95334.81;;;18.72;63.76
61408;BME280;47274;43.054;25.146;2022-12-07T11:08:54;95304.91;;;21.22;59.14
61408;BME280;47274;43.054;25.146;2022-12-07T11:11:38;95320.53;;;21.77;52.46
61408;BME280;47274;43.054;25.146;2022-12-07T11:14:31;95327.28;;;21.85;49.78
61408;BME280;47274;43.054;25.146;2022-12-07T11:17:44;95318.81;;;22.32;54.69
61408;BME280;47274;43.054;25.146;2022-12-07T11:20:01;95304.97;;;22.55;50.86
61408;BME280;47274;43.054;25.146;2022-12-07T11:23:00;95315.22;;;22.68;49.26
61408;BME280;47274;43.054;25.146;2022-12-07T11:33:22;95294.31;;;24.12;44.15
61408;BME280;47274;43.054;25.146;2022-12-07T11:35:55;95294.63;;;23.59;53.92
61408;BME280;47274;43.054;25.146;2022-12-07T11:38:41;95298.72;;;22.56;50.53
61408;BME280;47274;43.054;25.146;2022-12-07T11:41:08;95273.19;;;21.74;53.59
61408;BME280;47274;43.054;25.146;2022-12-07T11:44:19;95287.03;;;22.58;46.89
61408;BME280;47274;43.054;25.146;2022-12-07T11:46:56;95297.25;;;22.71;43.74
61408;BME280;47274;43.054;25.146;2022-12-07T11:52:03;95268.59;;;23.81;47.21
61408;BME280;47274;43.054;25.146;2022-12-07T11:54:40;95280.84;;;23.92;43.06
61408;BME280;47274;43.054;25.146;2022-12-07T11:57:15;95276.78;;;24.64;41.13
61408;BME280;47274;43.054;25.146;2022-12-07T11:59:52;95271.56;;;25.46;39.58
61408;BME280;47274;43.054;25.146;2022-12-07T12:02:37;95264.00;;;25.28;39.05
61408;BME280;47274;43.054;25.146;2022-12-07T12:05:19;95255.84;;;22.92;43.04
61408;BME280;47274;43.054;25.146;2022-12-07T12:07:59;95263.25;;;21.34;50.33
61408;BME280;47274;43.054;25.146;2022-12-07T12:15:55;95251.34;;;21.01;49.31
61408;BME280;47274;43.054;25.146;2022-12-07T12:21:17;95252.34;;;22.75;40.58
61408;BME280;47274;43.054;25.146;2022-12-07T12:24:13;95226.97;;;19.77;46.97
61408;BME280;47274;43.054;25.146;2022-12-07T12:26:52;95253.22;;;17.86;52.00
61408;BME280;47274;43.054;25.146;2022-12-07T12:29:33;95246.47;;;16.48;56.27
61408;BME280;47274;43.054;25.146;2022-12-07T12:32:22;95247.88;;;17.33;54.98
61408;BME280;47274;43.054;25.146;2022-12-07T12:35:28;95238.69;;;16.48;54.62
61408;BME280;47274;43.054;25.146;2022-12-07T12:40:50;95242.66;;;14.03;65.97
61408;BME280;47274;43.054;25.146;2022-12-07T12:43:49;95244.50;;;13.48;64.78
61408;BME280;47274;43.054;25.146;2022-12-07T12:52:00;95222.09;;;12.87;67.82
61408;BME280;47274;43.054;25.146;2022-12-07T12:54:33;95199.53;;;12.49;72.87
61408;BME280;47274;43.054;25.146;2022-12-07T12:57:32;95224.44;;;12.57;71.56
61408;BME280;47274;43.054;25.146;2022-12-07T12:59:59;95228.69;;;12.42;73.96
61408;BME280;47274;43.054;25.146;2022-12-07T13:02:32;95234.66;;;12.26;74.43
61408;BME280;47274;43.054;25.146;2022-12-07T13:05:00;95230.97;;;12.12;75.67
61408;BME280;47274;43.054;25.146;2022-12-07T13:12:59;95238.66;;;11.71;79.66
61408;BME280;47274;43.054;25.146;2022-12-07T13:15:52;95240.25;;;11.39;82.39
61408;BME280;47274;43.054;25.146;2022-12-07T13:18:45;95231.22;;;11.19;84.94
61408;BME280;47274;43.054;25.146;2022-12-07T13:23:38;95227.59;;;10.87;86.16
61408;BME280;47274;43.054;25.146;2022-12-07T13:34:27;95234.88;;;10.14;91.64
61408;BME280;47274;43.054;25.146;2022-12-07T13:36:51;95223.06;;;9.95;93.15
61408;BME280;47274;43.054;25.146;2022-12-07T13:39:20;95229.72;;;9.88;94.26
61408;BME280;47274;43.054;25.146;2022-12-07T13:41:54;95218.75;;;9.78;92.49
61408;BME280;47274;43.054;25.146;2022-12-07T13:44:20;95229.34;;;9.75;95.70
61408;BME280;47274;43.054;25.146;2022-12-07T13:49:52;95208.56;;;9.42;95.32
61408;BME280;47274;43.054;25.146;2022-12-07T13:54:49;95212.59;;;9.44;95.77
61408;BME280;47274;43.054;25.146;2022-12-07T13:57:16;95221.53;;;9.40;94.98
61408;BME280;47274;43.054;25.146;2022-12-07T13:59:43;95185.66;;;9.22;98.66
61408;BME280;47274;43.054;25.146;2022-12-07T14:02:26;95226.19;;;9.45;99.66
61408;BME280;47274;43.054;25.146;2022-12-07T14:05:22;95213.00;;;9.40;99.30
61408;BME280;47274;43.054;25.146;2022-12-07T14:07:54;95226.31;;;9.43;100.00
61408;BME280;47274;43.054;25.146;2022-12-07T14:10:36;95209.59;;;9.31;99.32
61408;BME280;47274;43.054;25.146;2022-12-07T14:13:17;95224.38;;;9.37;100.00
61408;BME280;47274;43.054;25.146;2022-12-07T14:15:50;95224.78;;;9.33;100.00
61408;BME280;47274;43.054;25.146;2022-12-07T14:18:38;95217.38;;;9.12;99.08
61408;BME280;47274;43.054;25.146;2022-12-07T14:23:37;95210.59;;;8.75;99.94
61408;BME280;47274;43.054;25.146;2022-12-07T14:26:11;95212.03;;;8.60;100.00
61408;BME280;47274;43.054;25.146;2022-12-07T14:28:41;95217.16;;;8.50;100.00
61408;BME280;47274;43.054;25.146;2022-12-07T14:31:21;95210.63;;;8.38;100.00
61408;BME280;47274;43.054;25.146;2022-12-07T14:33:49;95220.34;;;8.24;100.00
61408;BME280;47274;43.054;25.146;2022-12-07T14:36:15;95211.91;;;8.04;100.00
61408;BME280;47274;43.054;25.146;2022-12-07T14:38:41;95221.47;;;7.93;100.00
61408;BME280;47274;43.054;25.146;2022-12-07T14:41:13;95185.34;;;7.58;100.00
61408;BME280;47274;43.054;25.146;2022-12-07T14:43:58;95218.53;;;7.68;100.00
61408;BME280;47274;43.054;25.146;2022-12-07T14:46:24;95223.53;;;7.60;100.00
61408;BME280;47274;43.054;25.146;2022-12-07T14:48:50;95190.75;;;7.26;100.00
61408;BME280;47274;43.054;25.146;2022-12-07T14:51:16;95200.81;;;7.28;100.00
61408;BME280;47274;43.054;25.146;2022-12-07T14:53:48;95176.66;;;7.12;100.00
61408;BME280;47274;43.054;25.146;2022-12-07T14:56:15;95182.97;;;7.08;100.00
61408;BME280;47274;43.054;25.146;2022-12-07T14:58:41;95201.66;;;7.28;100.00
61408;BME280;47274;43.054;25.146;2022-12-07T15:01:07;95201.34;;;7.51;100.00
61408;BME280;47274;43.054;25.146;2022-12-07T15:03:33;95201.34;;;7.51;100.00
61408;BME280;47274;43.054;25.146;2022-12-07T15:06:00;95200.56;;;7.50;100.00
61408;BME280;47274;43.054;25.146;2022-12-07T15:08:26;95175.97;;;7.30;100.00
61408;BME280;47274;43.054;25.146;2022-12-07T15:10:52;95211.19;;;7.46;100.00
61408;BME280;47274;43.054;25.146;2022-12-07T15:13:18;95183.38;;;7.23;100.00
61408;BME280;47274;43.054;25.146;2022-12-07T15:16:03;95209.69;;;7.33;100.00
61408;BME280;47274;43.054;25.146;2022-12-07T15:18:28;95184.72;;;7.08;100.00
61408;BME280;47274;43.054;25.146;2022-12-07T15:20:54;95221.25;;;7.18;100.00
61408;BME280;47274;43.054;25.146;2022-12-07T15:23:20;95196.91;;;6.95;100.00
61408;BME280;47274;43.054;25.146;2022-12-07T15:25:48;95220.16;;;7.01;100.00
61408;BME280;47274;43.054;25.146;2022-12-07T15:28:14;95196.84;;;6.75;100.00
61408;BME280;47274;43.054;25.146;2022-12-07T15:30:42;95201.38;;;6.62;100.00
61408;BME280;47274;43.054;25.146;2022-12-07T15:33:09;95213.84;;;6.55;100.00
61408;BME280;47274;43.054;25.146;2022-12-07T15:35:41;95221.03;;;6.40;100.00
61408;BME280;47274;43.054;25.146;2022-12-07T15:38:08;95213.50;;;6.39;100.00
61408;BME280;47274;43.054;25.146;2022-12-07T15:40:34;95223.09;;;6.47;100.00
61408;BME280;47274;43.054;25.146;2022-12-07T15:43:01;95226.38;;;6.37;100.00
61408;BME280;47274;43.054;25.146;2022-12-07T15:45:27;95233.47;;;6.34;100.00
61408;BME280;47274;43.054;25.146;2022-12-07T15:47:55;95202.34;;;6.00;100.00
61408;BME280;47274;43.054;25.146;2022-12-07T15:50:22;95198.75;;;6.02;100.00
61408;BME280;47274;43.054;25.146;2022-12-07T15:52:48;95225.69;;;6.26;100.00
61408;BME280;47274;43.054;25.146;2022-12-07T15:55:15;95221.44;;;6.15;100.00
61408;BME280;47274;43.054;25.146;2022-12-07T15:57:42;95212.63;;;6.19;100.00
61408;BME280;47274;43.054;25.146;2022-12-07T16:00:10;95208.72;;;6.15;100.00
61408;BME280;47274;43.054;25.146;2022-12-07T16:02:37;95221.69;;;6.12;100.00
61408;BME280;47274;43.054;25.146;2022-12-07T16:05:03;95186.97;;;5.90;100.00
61408;BME280;47274;43.054;25.146;2022-12-07T16:07:29;95183.72;;;5.99;100.00
61408;BME280;47274;43.054;25.146;2022-12-07T16:09:55;95218.28;;;6.23;100.00
61408;BME280;47274;43.054;25.146;2022-12-07T16:12:21;95213.06;;;6.24;100.00
61408;BME280;47274;43.054;25.146;2022-12-07T16:14:47;95206.72;;;6.18;100.00
61408;BME280;47274;43.054;25.146;2022-12-07T16:17:13;95211.94;;;6.17;100.00
61408;BME280;47274;43.054;25.146;2022-12-07T16:19:39;95206.06;;;6.16;100.00
61408;BME280;47274;43.054;25.146;2022-12-07T16:22:05;95210.50;;;6.24;100.00
61408;BME280;47274;43.054;25.146;2022-12-07T16:24:31;95220.16;;;6.21;100.00
61408;BME280;47274;43.054;25.146;2022-12-07T16:26:58;95188.56;;;6.02;100.00
61408;BME280;47274;43.054;25.146;2022-12-07T16:29:23;95230.88;;;6.24;100.00
61408;BME280;47274;43.054;25.146;2022-12-07T16:31:51;95231.03;;;6.23;100.00
61408;BME280;47274;43.054;25.146;2022-12-07T16:34:17;95221.97;;;6.09;100.00
61408;BME280;47274;43.054;25.146;2022-12-07T16:36:43;95191.75;;;5.83;100.00
61408;BME280;47274;43.054;25.146;2022-12-07T16:39:09;95220.97;;;6.00;100.00
61408;BME280;47274;43.054;25.146;2022-12-07T16:41:36;95232.72;;;6.12;100.00
61408;BME280;47274;43.054;25.146;2022-12-07T16:44:04;95196.75;;;5.85;100.00
61408;BME280;47274;43.054;25.146;2022-12-07T16:46:34;95227.97;;;6.08;100.00
61408;BME280;47274;43.054;25.146;2022-12-07T16:49:02;95195.56;;;5.89;100.00
61408;BME280;47274;43.054;25.146;2022-12-07T16:51:29;95229.66;;;5.98;100.00
61408;BME280;47274;43.054;25.146;2022-12-07T16:53:55;95236.81;;;6.04;100.00
61408;BME280;47274;43.054;25.146;2022-12-07T16:56:21;95225.31;;;6.09;100.00
61408;BME280;47274;43.054;25.146;2022-12-07T16:58:47;95207.53;;;5.98;100.00
61408;BME280;47274;43.054;25.146;2022-12-07T17:01:17;95234.31;;;6.13;100.00
61408;BME280;47274;43.054;25.146;2022-12-07T17:03:43;95213.22;;;6.02;100.00
61408;BME280;47274;43.054;25.146;2022-12-07T17:06:20;95206.53;;;5.89;100.00
61408;BME280;47274;43.054;25.146;2022-12-07T17:08:51;95244.34;;;6.05;100.00
61408;BME280;47274;43.054;25.146;2022-12-07T17:11:20;95245.25;;;6.04;100.00
61408;BME280;47274;43.054;25.146;2022-12-07T17:13:46;95233.72;;;6.00;100.00
61408;BME280;47274;43.054;25.146;2022-12-07T17:16:32;95254.25;;;6.08;100.00
61408;BME280;47274;43.054;25.146;2022-12-07T17:18:57;95252.91;;;6.04;100.00
61408;BME280;47274;43.054;25.146;2022-12-07T17:21:24;95254.22;;;5.99;100.00
61408;BME280;47274;43.054;25.146;2022-12-07T17:23:50;95257.56;;;5.99;100.00
61408;BME280;47274;43.054;25.146;2022-12-07T17:26:22;95258.56;;;6.08;100.00
61408;BME280;47274;43.054;25.146;2022-12-07T17:28:48;95250.00;;;6.09;100.00
61408;BME280;47274;43.054;25.146;2022-12-07T17:31:17;95270.41;;;6.18;100.00
61408;BME280;47274;43.054;25.146;2022-12-07T17:33:44;95255.94;;;6.19;100.00
